createdAt,value
2018-05-31T00:00:44.946Z,8.10
2018-05-31T00:01:44.983Z,8.30
2018-05-31T00:02:45.020Z,8.00
2018-05-31T00:03:45.058Z,7.70
2018-05-31T00:04:45.096Z,7.50
2018-05-31T00:05:45.132Z,7.50
2018-05-31T00:06:45.170Z,7.60
2018-05-31T00:07:45.211Z,7.40
2018-05-31T00:08:45.245Z,7.30
2018-05-31T00:09:45.282Z,6.80
2018-05-31T00:10:45.319Z,7.00
2018-05-31T00:11:45.356Z,7.50
2018-05-31T00:12:45.395Z,7.70
2018-05-31T00:13:45.431Z,7.90
2018-05-31T00:14:45.469Z,8.00
2018-05-31T00:15:45.505Z,9.10
2018-05-31T00:16:45.544Z,8.10
2018-05-31T00:17:45.580Z,7.80
2018-05-31T00:18:45.617Z,8.10
2018-05-31T00:19:45.655Z,9.20
2018-05-31T00:20:45.694Z,8.20
2018-05-31T00:21:45.730Z,8.70
2018-05-31T00:22:45.768Z,7.90
2018-05-31T00:23:45.804Z,8.50
2018-05-31T00:24:45.843Z,8.10
2018-05-31T00:25:45.879Z,8.00
2018-05-31T00:26:45.917Z,8.20
2018-05-31T00:27:45.954Z,8.50
2018-05-31T00:28:45.991Z,8.00
2018-05-31T00:29:46.030Z,7.60
2018-05-31T00:30:46.069Z,7.90
2018-05-31T00:31:46.103Z,7.50
2018-05-31T00:32:46.141Z,7.30
2018-05-31T00:33:46.178Z,8.70
2018-05-31T00:34:46.215Z,7.60
2018-05-31T00:35:46.252Z,7.10
2018-05-31T00:36:46.292Z,7.80
2018-05-31T00:37:46.348Z,8.30
2018-05-31T00:38:46.363Z,7.70
2018-05-31T00:39:46.405Z,8.10
2018-05-31T00:40:46.443Z,7.90
2018-05-31T00:41:46.476Z,7.20
2018-05-31T00:42:46.513Z,7.80
2018-05-31T00:43:46.550Z,7.30
2018-05-31T00:44:46.593Z,7.30
2018-05-31T00:45:46.628Z,7.00
2018-05-31T00:46:46.663Z,7.40
2018-05-31T00:47:46.701Z,7.20
2018-05-31T00:48:46.737Z,7.60
2018-05-31T00:49:46.775Z,7.40
2018-05-31T00:50:46.812Z,8.30
2018-05-31T00:51:46.849Z,8.60
2018-05-31T00:52:46.893Z,9.00
2018-05-31T00:53:46.923Z,9.70
2018-05-31T00:54:46.960Z,8.70
2018-05-31T00:55:46.998Z,9.50
2018-05-31T00:56:47.038Z,8.80
2018-05-31T00:57:47.074Z,8.40
2018-05-31T00:58:47.111Z,7.70
2018-05-31T00:59:47.151Z,8.10
2018-05-31T01:00:47.185Z,8.80
2018-05-31T01:01:47.223Z,8.80
2018-05-31T01:02:47.260Z,9.20
2018-05-31T01:03:47.296Z,9.40
2018-05-31T01:04:47.335Z,9.40
2018-05-31T01:05:47.371Z,9.40
2018-05-31T01:06:47.409Z,10.20
2018-05-31T01:07:47.447Z,10.50
2018-05-31T01:08:47.484Z,10.20
2018-05-31T01:09:47.521Z,10.10
2018-05-31T01:10:47.562Z,9.90
2018-05-31T01:11:47.597Z,10.10
2018-05-31T01:12:47.634Z,9.80
2018-05-31T01:13:47.669Z,8.60
2018-05-31T01:14:47.706Z,8.40
2018-05-31T01:15:47.746Z,8.90
2018-05-31T01:16:47.783Z,8.70
2018-05-31T01:17:47.819Z,9.10
2018-05-31T01:18:47.857Z,8.20
2018-05-31T01:19:47.894Z,8.80
2018-05-31T01:20:47.931Z,8.00
2018-05-31T01:21:47.972Z,7.90
2018-05-31T01:22:48.005Z,8.10
2018-05-31T01:23:48.043Z,8.50
2018-05-31T01:24:48.082Z,8.70
2018-05-31T01:25:48.116Z,8.30
2018-05-31T01:26:48.155Z,8.80
2018-05-31T01:27:48.193Z,9.40
2018-05-31T01:28:48.230Z,9.30
2018-05-31T01:29:48.267Z,10.00
2018-05-31T01:30:48.304Z,10.10
2018-05-31T01:31:48.341Z,10.00
2018-05-31T01:32:48.379Z,10.70
2018-05-31T01:33:48.415Z,11.10
2018-05-31T01:34:48.453Z,10.30
2018-05-31T01:35:48.489Z,10.00
2018-05-31T01:36:48.526Z,9.60
2018-05-31T01:37:48.562Z,9.10
2018-05-31T01:38:48.599Z,8.50
2018-05-31T01:39:48.639Z,8.40
2018-05-31T01:40:48.675Z,8.30
2018-05-31T01:41:48.711Z,9.00
2018-05-31T01:42:48.753Z,8.80
2018-05-31T01:43:48.785Z,8.40
2018-05-31T01:44:48.822Z,9.20
2018-05-31T01:45:48.860Z,8.80
2018-05-31T01:46:48.895Z,9.00
2018-05-31T01:47:48.934Z,9.00
2018-05-31T01:48:48.970Z,9.10
2018-05-31T01:49:49.007Z,9.40
2018-05-31T01:50:49.043Z,9.50
2018-05-31T01:51:49.099Z,9.60
2018-05-31T01:52:49.134Z,9.50
2018-05-31T01:53:49.166Z,9.40
2018-05-31T01:54:49.190Z,9.40
2018-05-31T01:55:49.245Z,8.80
2018-05-31T01:56:49.270Z,9.20
2018-05-31T01:57:49.301Z,8.90
2018-05-31T01:58:49.339Z,9.00
2018-05-31T01:59:49.374Z,8.80
2018-05-31T02:00:49.412Z,9.80
2018-05-31T02:01:49.448Z,8.70
2018-05-31T02:02:49.494Z,10.10
2018-05-31T02:03:49.526Z,9.40
2018-05-31T02:04:49.558Z,10.50
2018-05-31T02:05:49.596Z,9.30
2018-05-31T02:06:49.632Z,9.80
2018-05-31T02:07:49.669Z,9.20
2018-05-31T02:08:49.705Z,9.60
2018-05-31T02:09:49.742Z,9.40
2018-05-31T02:10:49.780Z,10.40
2018-05-31T02:11:49.816Z,9.90
2018-05-31T02:12:49.856Z,10.80
2018-05-31T02:13:49.888Z,9.80
2018-05-31T02:14:49.940Z,8.00
2018-05-31T02:15:49.963Z,8.70
2018-05-31T02:16:49.999Z,7.90
2018-05-31T02:17:50.036Z,8.50
2018-05-31T02:18:50.072Z,8.00
2018-05-31T02:19:50.110Z,9.10
2018-05-31T02:20:50.146Z,9.40
2018-05-31T02:21:50.180Z,10.40
2018-05-31T02:22:50.218Z,10.30
2018-05-31T02:23:50.255Z,11.10
2018-05-31T02:24:50.290Z,10.40
2018-05-31T02:25:50.328Z,10.60
2018-05-31T02:26:50.364Z,10.40
2018-05-31T02:27:50.401Z,10.40
2018-05-31T02:28:50.441Z,9.60
2018-05-31T02:29:50.474Z,9.50
2018-05-31T02:30:50.511Z,10.10
2018-05-31T02:31:50.547Z,9.50
2018-05-31T02:32:50.583Z,10.00
2018-05-31T02:33:50.618Z,9.70
2018-05-31T02:34:50.656Z,9.20
2018-05-31T02:35:50.693Z,9.40
2018-05-31T02:36:50.729Z,9.40
2018-05-31T02:37:50.768Z,10.30
2018-05-31T02:38:50.802Z,9.30
2018-05-31T02:39:50.839Z,9.80
2018-05-31T02:40:50.875Z,10.60
2018-05-31T02:41:50.910Z,9.80
2018-05-31T02:42:50.945Z,10.20
2018-05-31T02:43:50.983Z,9.30
2018-05-31T02:44:51.020Z,9.50
2018-05-31T02:45:51.054Z,9.90
2018-05-31T02:46:51.094Z,9.50
2018-05-31T02:47:51.129Z,9.40
2018-05-31T02:48:51.168Z,10.20
2018-05-31T02:49:51.200Z,9.10
2018-05-31T02:50:51.237Z,10.40
2018-05-31T02:51:51.599Z,9.20
2018-05-31T02:52:51.329Z,10.10
2018-05-31T02:53:51.345Z,10.00
2018-05-31T02:54:51.382Z,11.00
2018-05-31T02:55:51.417Z,11.60
2018-05-31T02:56:51.454Z,11.80
2018-05-31T02:57:51.488Z,10.90
2018-05-31T02:58:51.528Z,9.20
2018-05-31T02:59:51.765Z,9.90
2018-05-31T03:00:51.599Z,9.70
2018-05-31T03:01:51.633Z,10.70
2018-05-31T03:02:51.669Z,10.30
2018-05-31T03:03:51.706Z,10.30
2018-05-31T03:04:51.743Z,10.50
2018-05-31T03:05:51.779Z,10.40
2018-05-31T03:06:51.814Z,10.10
2018-05-31T03:07:51.867Z,9.60
2018-05-31T03:08:51.886Z,9.70
2018-05-31T03:09:51.922Z,10.30
2018-05-31T03:10:51.957Z,10.50
2018-05-31T03:11:51.994Z,10.20
2018-05-31T03:12:52.055Z,9.90
2018-05-31T03:13:52.267Z,10.10
2018-05-31T03:14:52.118Z,11.30
2018-05-31T03:15:52.137Z,10.30
2018-05-31T03:16:52.175Z,10.20
2018-05-31T03:17:52.209Z,10.20
2018-05-31T03:18:52.244Z,10.10
2018-05-31T03:19:52.281Z,10.60
2018-05-31T03:20:52.317Z,11.70
2018-05-31T03:21:52.352Z,11.10
2018-05-31T03:22:52.387Z,11.50
2018-05-31T03:23:52.426Z,11.90
2018-05-31T03:24:52.461Z,12.90
2018-05-31T03:25:52.499Z,13.10
2018-05-31T03:26:52.532Z,11.00
2018-05-31T03:27:52.568Z,11.40
2018-05-31T03:28:52.603Z,11.30
2018-05-31T03:29:52.638Z,11.40
2018-05-31T03:30:52.679Z,11.40
2018-05-31T03:31:52.711Z,11.60
2018-05-31T03:32:52.752Z,10.30
2018-05-31T03:33:52.783Z,10.50
2018-05-31T03:34:52.820Z,11.50
2018-05-31T03:35:52.855Z,10.50
2018-05-31T03:36:52.892Z,11.20
2018-05-31T03:37:52.926Z,11.90
2018-05-31T03:38:52.963Z,10.20
2018-05-31T03:39:52.998Z,10.30
2018-05-31T03:40:53.035Z,10.60
2018-05-31T03:41:53.069Z,10.80
2018-05-31T03:42:53.105Z,11.20
2018-05-31T03:43:53.140Z,11.80
2018-05-31T03:44:53.178Z,11.70
2018-05-31T03:45:53.213Z,10.50
2018-05-31T03:46:53.249Z,10.80
2018-05-31T03:47:53.283Z,10.80
2018-05-31T03:48:53.320Z,11.90
2018-05-31T03:49:53.356Z,11.60
2018-05-31T03:50:53.392Z,10.80
2018-05-31T03:51:53.428Z,12.10
2018-05-31T03:52:53.464Z,12.60
2018-05-31T03:53:53.505Z,12.60
2018-05-31T03:54:53.535Z,13.10
2018-05-31T03:55:53.571Z,12.40
2018-05-31T03:56:53.608Z,12.10
2018-05-31T03:57:53.642Z,11.10
2018-05-31T03:58:53.678Z,11.30
2018-05-31T03:59:53.715Z,10.90
2018-05-31T04:00:53.751Z,11.60
2018-05-31T04:01:53.786Z,11.30
2018-05-31T04:02:53.822Z,11.80
2018-05-31T04:03:53.858Z,10.50
2018-05-31T04:04:53.893Z,11.30
2018-05-31T04:05:53.930Z,10.50
2018-05-31T04:06:53.965Z,11.20
2018-05-31T04:07:54.001Z,11.80
2018-05-31T04:08:54.038Z,12.70
2018-05-31T04:09:54.072Z,12.60
2018-05-31T04:10:54.110Z,12.00
2018-05-31T04:11:54.145Z,12.40
2018-05-31T04:12:54.180Z,12.90
2018-05-31T04:13:54.218Z,11.70
2018-05-31T04:14:54.252Z,10.80
2018-05-31T04:15:54.332Z,10.60
2018-05-31T04:16:54.323Z,11.90
2018-05-31T04:17:54.359Z,11.50
2018-05-31T04:18:54.394Z,11.30
2018-05-31T04:19:54.431Z,12.00
2018-05-31T04:20:54.467Z,10.80
2018-05-31T04:21:54.502Z,11.80
2018-05-31T04:22:54.538Z,11.70
2018-05-31T04:23:54.575Z,11.50
2018-05-31T04:24:54.611Z,11.50
2018-05-31T04:25:54.646Z,11.20
2018-05-31T04:26:54.682Z,11.60
2018-05-31T04:27:54.718Z,11.10
2018-05-31T04:28:54.755Z,11.00
2018-05-31T04:29:54.790Z,10.90
2018-05-31T04:30:54.827Z,11.50
2018-05-31T04:31:54.862Z,11.40
2018-05-31T04:32:54.899Z,10.10
2018-05-31T04:33:54.933Z,10.40
2018-05-31T04:34:54.972Z,10.50
2018-05-31T04:35:55.005Z,9.70
2018-05-31T04:36:55.043Z,9.20
2018-05-31T04:37:55.079Z,11.10
2018-05-31T04:38:55.114Z,12.50
2018-05-31T04:39:55.149Z,12.50
2018-05-31T04:40:55.190Z,13.90
2018-05-31T04:41:55.222Z,13.70
2018-05-31T04:42:55.258Z,14.70
2018-05-31T04:43:55.295Z,14.40
2018-05-31T04:44:55.330Z,15.60
2018-05-31T04:45:55.367Z,16.70
2018-05-31T04:46:55.403Z,17.60
2018-05-31T04:47:55.439Z,16.20
2018-05-31T04:48:55.475Z,16.00
2018-05-31T04:49:55.511Z,17.60
2018-05-31T04:50:55.547Z,17.50
2018-05-31T04:51:55.584Z,16.30
2018-05-31T04:52:55.621Z,16.80
2018-05-31T04:53:55.655Z,16.00
2018-05-31T04:54:55.691Z,17.80
2018-05-31T04:55:55.728Z,17.60
2018-05-31T04:56:55.764Z,14.90
2018-05-31T04:57:55.801Z,15.70
2018-05-31T04:58:55.836Z,15.70
2018-05-31T04:59:55.873Z,15.90
2018-05-31T05:00:55.913Z,17.00
2018-05-31T05:01:55.945Z,16.30
2018-05-31T05:02:56.014Z,16.20
2018-05-31T05:03:56.018Z,15.80
2018-05-31T05:04:56.056Z,15.40
2018-05-31T05:05:56.091Z,15.00
2018-05-31T05:06:56.129Z,14.60
2018-05-31T05:07:56.164Z,13.90
2018-05-31T05:08:56.202Z,12.90
2018-05-31T05:09:56.243Z,13.00
2018-05-31T05:10:56.275Z,13.80
2018-05-31T05:11:56.313Z,13.60
2018-05-31T05:12:56.350Z,12.40
2018-05-31T05:13:56.386Z,12.40
2018-05-31T05:14:56.423Z,10.90
2018-05-31T05:15:56.460Z,11.30
2018-05-31T05:16:56.498Z,11.80
2018-05-31T05:17:56.533Z,11.00
2018-05-31T05:18:56.571Z,9.20
2018-05-31T05:19:56.609Z,9.20
2018-05-31T05:20:56.647Z,9.40
2018-05-31T05:21:56.683Z,9.00
2018-05-31T05:22:56.721Z,9.80
2018-05-31T05:23:56.758Z,8.40
2018-05-31T05:24:56.799Z,8.80
2018-05-31T05:25:56.831Z,8.50
2018-05-31T05:26:56.873Z,7.80
2018-05-31T05:27:56.909Z,7.40
2018-05-31T05:28:56.947Z,7.30
2018-05-31T05:29:56.982Z,7.50
2018-05-31T05:30:57.022Z,6.90
2018-05-31T05:31:57.063Z,7.30
2018-05-31T05:32:57.096Z,7.60
2018-05-31T05:33:57.134Z,7.50
2018-05-31T05:34:57.172Z,7.60
2018-05-31T05:35:57.209Z,6.40
2018-05-31T05:36:57.247Z,6.60
2018-05-31T05:37:57.284Z,6.60
2018-05-31T05:38:57.323Z,7.20
2018-05-31T05:39:57.361Z,6.50
2018-05-31T05:40:57.399Z,7.00
2018-05-31T05:41:57.436Z,6.90
2018-05-31T05:42:57.474Z,6.60
2018-05-31T05:43:57.511Z,6.40
2018-05-31T05:44:57.551Z,6.70
2018-05-31T05:45:57.587Z,6.60
2018-05-31T05:46:57.625Z,6.70
2018-05-31T05:47:57.663Z,7.00
2018-05-31T05:48:57.703Z,5.90
2018-05-31T05:49:57.738Z,5.60
2018-05-31T05:50:57.777Z,5.90
2018-05-31T05:51:57.814Z,6.90
2018-05-31T05:52:57.854Z,5.70
2018-05-31T05:53:57.889Z,6.10
2018-05-31T05:54:57.926Z,6.70
2018-05-31T05:55:57.970Z,6.00
2018-05-31T05:56:58.004Z,5.90
2018-05-31T05:57:58.040Z,6.20
2018-05-31T05:58:58.079Z,6.20
2018-05-31T05:59:58.116Z,5.70
2018-05-31T06:00:58.155Z,6.10
2018-05-31T06:01:58.193Z,6.00
2018-05-31T06:02:58.229Z,5.80
2018-05-31T06:03:58.268Z,6.40
2018-05-31T06:04:58.306Z,6.40
2018-05-31T06:05:58.343Z,7.00
2018-05-31T06:06:58.379Z,7.00
2018-05-31T06:07:58.419Z,6.40
2018-05-31T06:08:58.455Z,6.90
2018-05-31T06:09:58.519Z,6.00
2018-05-31T06:10:58.531Z,6.70
2018-05-31T06:11:58.569Z,6.20
2018-05-31T06:12:58.606Z,6.40
2018-05-31T06:13:58.644Z,6.40
2018-05-31T06:14:58.684Z,6.60
2018-05-31T06:15:58.720Z,6.10
2018-05-31T06:16:58.758Z,5.90
2018-05-31T06:17:58.794Z,6.00
2018-05-31T06:18:58.835Z,6.20
2018-05-31T06:19:58.871Z,6.90
2018-05-31T06:20:58.909Z,6.30
2018-05-31T06:21:58.987Z,6.40
2018-05-31T06:22:58.987Z,7.10
2018-05-31T06:23:59.023Z,7.00
2018-05-31T06:24:59.061Z,7.60
2018-05-31T06:25:59.098Z,8.00
2018-05-31T06:26:59.137Z,8.70
2018-05-31T06:27:59.173Z,8.90
2018-05-31T06:28:59.213Z,9.20
2018-05-31T06:29:59.252Z,9.30
2018-05-31T06:30:59.288Z,8.50
2018-05-31T06:31:59.327Z,8.30
2018-05-31T06:32:59.365Z,8.80
2018-05-31T06:33:59.402Z,8.80
2018-05-31T06:34:59.441Z,8.50
2018-05-31T06:35:59.478Z,9.20
2018-05-31T06:36:59.517Z,7.90
2018-05-31T06:37:59.553Z,8.30
2018-05-31T06:38:59.593Z,8.30
2018-05-31T06:39:59.631Z,8.50
2018-05-31T06:40:59.670Z,8.40
2018-05-31T06:41:59.706Z,8.20
2018-05-31T06:42:59.766Z,8.50
2018-05-31T06:43:59.796Z,8.30
2018-05-31T06:44:59.822Z,8.00
2018-05-31T06:45:59.883Z,8.40
2018-05-31T06:47:00.204Z,9.00
2018-05-31T06:47:59.957Z,9.00
2018-05-31T06:49:00.196Z,8.30
2018-05-31T06:50:00.014Z,8.80
2018-05-31T06:51:00.052Z,8.70
2018-05-31T06:52:00.091Z,9.20
2018-05-31T06:53:00.130Z,10.10
2018-05-31T06:54:00.167Z,9.50
2018-05-31T06:55:00.207Z,9.10
2018-05-31T06:56:00.244Z,10.00
2018-05-31T06:57:00.283Z,8.80
2018-05-31T06:58:00.322Z,8.80
2018-05-31T06:59:00.360Z,8.50
2018-05-31T07:00:00.399Z,8.60
2018-05-31T07:01:00.439Z,9.10
2018-05-31T07:02:00.477Z,8.70
2018-05-31T07:03:00.515Z,8.80
2018-05-31T07:04:00.555Z,8.80
2018-05-31T07:05:00.594Z,8.50
2018-05-31T07:06:00.632Z,8.50
2018-05-31T07:07:00.671Z,8.30
2018-05-31T07:08:00.711Z,8.70
2018-05-31T07:09:00.755Z,7.90
2018-05-31T07:10:00.792Z,8.00
2018-05-31T07:11:00.827Z,8.20
2018-05-31T07:12:00.866Z,8.40
2018-05-31T07:13:00.905Z,8.60
2018-05-31T07:14:00.944Z,9.00
2018-05-31T07:15:00.984Z,7.60
2018-05-31T07:16:01.034Z,8.90
2018-05-31T07:17:01.062Z,8.30
2018-05-31T07:18:01.103Z,7.90
2018-05-31T07:19:01.141Z,8.50
2018-05-31T07:20:01.180Z,8.30
2018-05-31T07:21:01.219Z,8.10
2018-05-31T07:22:01.259Z,8.40
2018-05-31T07:23:01.298Z,7.60
2018-05-31T07:24:01.344Z,7.10
2018-05-31T07:25:01.376Z,8.40
2018-05-31T07:26:01.415Z,9.00
2018-05-31T07:27:01.454Z,9.00
2018-05-31T07:28:01.495Z,8.80
2018-05-31T07:29:01.538Z,7.40
2018-05-31T07:30:01.573Z,8.30
2018-05-31T07:31:01.616Z,7.90
2018-05-31T07:32:01.653Z,7.90
2018-05-31T07:33:01.693Z,8.00
2018-05-31T07:34:01.733Z,8.70
2018-05-31T07:35:01.772Z,7.90
2018-05-31T07:36:01.811Z,8.20
2018-05-31T07:37:01.857Z,8.40
2018-05-31T07:38:01.890Z,7.90
2018-05-31T07:39:01.931Z,8.00
2018-05-31T07:40:01.971Z,8.00
2018-05-31T07:41:02.012Z,8.00
2018-05-31T07:42:02.051Z,7.90
2018-05-31T07:43:02.108Z,8.80
2018-05-31T07:44:02.131Z,8.40
2018-05-31T07:45:02.171Z,8.80
2018-05-31T07:46:02.209Z,8.10
2018-05-31T07:47:02.273Z,8.60
2018-05-31T07:48:02.290Z,8.20
2018-05-31T07:49:02.331Z,8.00
2018-05-31T07:50:02.385Z,8.60
2018-05-31T07:51:02.411Z,8.60
2018-05-31T07:53:02.492Z,8.50
2018-05-31T07:54:02.531Z,8.80
2018-05-31T07:55:02.575Z,7.70
2018-05-31T07:56:02.613Z,8.70
2018-05-31T07:57:02.653Z,8.70
2018-05-31T07:58:02.714Z,9.00
2018-05-31T07:59:02.936Z,8.90
2018-05-31T08:00:02.774Z,9.50
2018-05-31T08:01:02.815Z,9.00
2018-05-31T08:02:02.876Z,8.40
2018-05-31T08:03:02.922Z,7.70
2018-05-31T08:04:02.959Z,7.70
2018-05-31T08:05:03.180Z,7.90
2018-05-31T08:06:03.017Z,7.50
2018-05-31T08:07:03.058Z,7.90
2018-05-31T08:08:03.099Z,7.90
2018-05-31T08:09:03.144Z,7.40
2018-05-31T08:10:03.180Z,7.40
2018-05-31T08:11:03.221Z,7.20
2018-05-31T08:12:03.262Z,7.30
2018-05-31T08:13:03.303Z,7.90
2018-05-31T08:14:03.344Z,7.30
2018-05-31T08:15:03.385Z,7.90
2018-05-31T08:16:03.429Z,6.80
2018-05-31T08:17:03.467Z,6.90
2018-05-31T08:18:03.508Z,7.60
2018-05-31T08:19:03.553Z,7.90
2018-05-31T08:20:03.592Z,7.00
2018-05-31T08:21:03.633Z,6.60
2018-05-31T08:22:03.672Z,6.50
2018-05-31T08:23:03.715Z,7.00
2018-05-31T08:24:03.756Z,6.90
2018-05-31T08:25:03.800Z,6.00
2018-05-31T08:26:03.839Z,6.00
2018-05-31T08:27:03.880Z,7.10
2018-05-31T08:28:03.924Z,7.30
2018-05-31T08:29:03.967Z,7.10
2018-05-31T08:30:04.007Z,6.40
2018-05-31T08:31:04.049Z,6.10
2018-05-31T08:32:04.089Z,6.20
2018-05-31T08:33:04.132Z,6.10
2018-05-31T08:34:04.181Z,6.00
2018-05-31T08:35:04.216Z,5.70
2018-05-31T08:36:04.257Z,6.60
2018-05-31T08:37:04.302Z,5.30
2018-05-31T08:38:04.342Z,5.60
2018-05-31T08:39:04.383Z,5.40
2018-05-31T08:40:04.426Z,5.70
2018-05-31T08:41:04.470Z,5.30
2018-05-31T08:42:04.541Z,5.80
2018-05-31T08:43:04.555Z,5.70
2018-05-31T08:44:04.603Z,5.50
2018-05-31T08:45:04.638Z,6.00
2018-05-31T08:46:04.680Z,6.40
2018-05-31T08:47:04.722Z,6.10
2018-05-31T08:48:04.763Z,5.90
2018-05-31T08:49:04.815Z,5.50
2018-05-31T08:50:04.850Z,6.50
2018-05-31T08:51:04.945Z,5.60
2018-05-31T08:52:04.933Z,6.10
2018-05-31T08:53:04.975Z,5.60
2018-05-31T08:54:05.015Z,5.70
2018-05-31T08:55:05.059Z,6.00
2018-05-31T08:56:05.100Z,5.60
2018-05-31T08:57:05.143Z,5.10
2018-05-31T08:58:05.184Z,5.50
2018-05-31T08:59:05.249Z,5.40
2018-05-31T09:00:05.269Z,4.70
2018-05-31T09:01:05.641Z,5.10
2018-05-31T09:02:05.353Z,5.80
2018-05-31T09:03:05.417Z,6.10
2018-05-31T09:04:05.459Z,6.20
2018-05-31T09:05:05.503Z,6.20
2018-05-31T09:06:05.541Z,5.80
2018-05-31T09:07:05.564Z,6.20
2018-05-31T09:08:05.607Z,5.50
2018-05-31T09:09:06.275Z,6.50
2018-05-31T09:10:05.693Z,5.30
2018-05-31T09:11:05.737Z,5.10
2018-05-31T09:12:05.775Z,5.80
2018-05-31T09:13:05.818Z,5.70
2018-05-31T09:14:05.859Z,6.20
2018-05-31T09:15:05.954Z,5.90
2018-05-31T09:16:05.945Z,6.80
2018-05-31T09:17:05.987Z,5.80
2018-05-31T09:18:06.030Z,5.80
2018-05-31T09:19:06.073Z,5.80
2018-05-31T09:20:06.115Z,5.60
2018-05-31T09:21:06.158Z,6.00
2018-05-31T09:22:06.218Z,6.00
2018-05-31T09:23:06.258Z,6.10
2018-05-31T09:24:06.309Z,5.70
2018-05-31T09:25:06.327Z,5.30
2018-05-31T09:26:06.369Z,5.70
2018-05-31T09:27:06.412Z,5.50
2018-05-31T09:28:06.454Z,6.10
2018-05-31T09:29:06.497Z,6.60
2018-05-31T09:30:06.538Z,5.70
2018-05-31T09:31:06.581Z,5.90
2018-05-31T09:32:06.623Z,6.40
2018-05-31T09:33:06.666Z,5.70
2018-05-31T09:34:06.709Z,5.80
2018-05-31T09:35:06.787Z,4.80
2018-05-31T09:36:06.794Z,5.50
2018-05-31T09:37:06.837Z,5.40
2018-05-31T09:38:06.878Z,6.00
2018-05-31T09:39:06.922Z,6.00
2018-05-31T09:40:06.965Z,6.20
2018-05-31T09:42:07.049Z,5.80
2018-05-31T09:43:07.091Z,5.90
2018-05-31T09:44:07.143Z,5.60
2018-05-31T09:45:07.177Z,5.40
2018-05-31T09:46:07.220Z,5.50
2018-05-31T09:47:07.263Z,5.50
2018-05-31T09:48:07.630Z,4.90
2018-05-31T09:49:07.352Z,4.90
2018-05-31T09:50:07.389Z,5.10
2018-05-31T09:51:07.451Z,5.80
2018-05-31T09:52:07.476Z,4.90
2018-05-31T09:53:07.519Z,5.20
2018-05-31T09:54:07.560Z,4.90
2018-05-31T09:55:07.604Z,5.10
2018-05-31T09:56:07.646Z,4.20
2018-05-31T09:57:07.689Z,4.40
2018-05-31T09:58:07.757Z,4.30
2018-05-31T09:59:07.775Z,4.20
2018-05-31T10:00:07.836Z,4.40
2018-05-31T10:01:07.883Z,4.30
2018-05-31T10:02:07.922Z,4.00
2018-05-31T10:03:07.945Z,4.30
2018-05-31T10:05:08.032Z,4.10
2018-05-31T10:06:08.079Z,4.20
2018-05-31T10:07:08.118Z,4.30
2018-05-31T10:08:08.159Z,4.40
2018-05-31T10:09:08.202Z,4.80
2018-05-31T10:10:08.568Z,4.70
2018-05-31T10:11:08.287Z,4.50
2018-05-31T10:12:08.655Z,4.60
2018-05-31T10:13:08.373Z,4.50
2018-05-31T10:14:08.414Z,3.90
2018-05-31T10:15:08.458Z,4.00
2018-05-31T10:16:08.501Z,4.20
2018-05-31T10:17:08.570Z,3.70
2018-05-31T10:18:08.909Z,3.20
2018-05-31T10:19:08.631Z,4.20
2018-05-31T10:20:08.690Z,3.80
2018-05-31T10:21:08.730Z,4.70
2018-05-31T10:22:08.774Z,5.00
2018-05-31T10:23:08.822Z,5.10
2018-05-31T10:24:08.843Z,4.60
2018-05-31T10:25:08.906Z,4.80
2018-05-31T10:26:08.928Z,5.30
2018-05-31T10:27:08.989Z,5.20
2018-05-31T10:28:09.015Z,5.80
2018-05-31T10:29:09.079Z,5.30
2018-05-31T10:31:09.146Z,5.10
2018-05-31T10:32:09.191Z,4.30
2018-05-31T10:33:09.230Z,3.60
2018-05-31T10:34:09.272Z,4.30
2018-05-31T10:35:09.317Z,3.80
2018-05-31T10:36:09.563Z,4.80
2018-05-31T10:37:09.405Z,4.50
2018-05-31T10:38:09.448Z,5.10
2018-05-31T10:39:09.493Z,5.50
2018-05-31T10:40:09.537Z,5.10
2018-05-31T10:41:09.584Z,5.20
2018-05-31T10:42:09.630Z,4.50
2018-05-31T10:43:09.673Z,5.20
2018-05-31T10:44:09.717Z,4.80
2018-05-31T10:45:09.763Z,4.60
2018-05-31T10:46:09.828Z,4.50
2018-05-31T10:47:09.851Z,4.00
2018-05-31T10:48:09.895Z,4.40
2018-05-31T10:49:09.941Z,4.30
2018-05-31T10:50:09.983Z,4.40
2018-05-31T10:51:10.028Z,4.20
2018-05-31T10:52:10.073Z,4.20
2018-05-31T10:53:10.117Z,4.10
2018-05-31T10:54:10.159Z,3.90
2018-05-31T10:55:10.204Z,4.00
2018-05-31T10:56:10.247Z,3.80
2018-05-31T10:57:10.290Z,4.20
2018-05-31T10:58:10.334Z,4.00
2018-05-31T10:59:10.380Z,3.70
2018-05-31T11:00:10.421Z,4.20
2018-05-31T11:01:10.467Z,3.90
2018-05-31T11:02:10.506Z,4.40
2018-05-31T11:03:10.548Z,4.60
2018-05-31T11:04:10.591Z,6.90
2018-05-31T11:05:10.637Z,7.50
2018-05-31T11:06:10.677Z,13.90
2018-05-31T11:07:10.718Z,4.50
2018-05-31T11:08:10.762Z,4.00
2018-05-31T11:09:10.803Z,4.30
2018-05-31T11:10:10.845Z,4.20
2018-05-31T11:11:10.888Z,4.90
2018-05-31T11:12:10.936Z,5.20
2018-05-31T11:13:10.975Z,4.80
2018-05-31T11:14:11.014Z,4.70
2018-05-31T11:15:11.055Z,4.00
2018-05-31T11:16:11.099Z,3.70
2018-05-31T11:17:11.140Z,3.80
2018-05-31T11:18:11.181Z,4.10
2018-05-31T11:19:11.223Z,3.80
2018-05-31T11:20:11.266Z,4.10
2018-05-31T11:21:11.307Z,4.00
2018-05-31T11:22:11.348Z,4.10
2018-05-31T11:23:11.391Z,4.60
2018-05-31T11:24:11.433Z,4.20
2018-05-31T11:25:11.479Z,4.10
2018-05-31T11:26:11.516Z,4.60
2018-05-31T11:27:11.558Z,4.20
2018-05-31T11:28:11.600Z,7.50
2018-05-31T11:29:11.651Z,7.70
2018-05-31T11:30:11.682Z,10.20
2018-05-31T11:31:11.740Z,11.20
2018-05-31T11:32:11.767Z,8.00
2018-05-31T11:33:11.808Z,6.20
2018-05-31T11:34:11.849Z,5.60
2018-05-31T11:35:11.891Z,6.40
2018-05-31T11:36:11.933Z,6.80
2018-05-31T11:37:11.977Z,5.70
2018-05-31T11:38:12.019Z,4.70
2018-05-31T11:39:12.063Z,4.60
2018-05-31T11:40:12.107Z,5.00
2018-05-31T11:41:12.151Z,5.00
2018-05-31T11:42:12.196Z,5.40
2018-05-31T11:43:12.243Z,5.30
2018-05-31T11:44:12.292Z,5.10
2018-05-31T11:45:12.338Z,5.00
2018-05-31T11:46:12.385Z,5.50
2018-05-31T11:47:12.432Z,4.80
2018-05-31T11:48:12.481Z,4.60
2018-05-31T11:49:12.533Z,4.30
2018-05-31T11:50:12.581Z,4.80
2018-05-31T11:51:12.631Z,4.50
2018-05-31T11:52:12.687Z,5.00
2018-05-31T11:53:12.732Z,4.40
2018-05-31T11:54:12.782Z,4.20
2018-05-31T11:55:12.834Z,4.40
2018-05-31T11:56:12.885Z,4.30
2018-05-31T11:57:12.936Z,3.90
2018-05-31T11:58:12.987Z,4.50
2018-05-31T11:59:13.040Z,3.30
2018-05-31T12:00:13.099Z,3.30
2018-05-31T12:01:13.144Z,3.70
2018-05-31T12:02:13.196Z,3.00
2018-05-31T12:03:13.248Z,3.10
2018-05-31T12:04:13.301Z,3.10
2018-05-31T12:05:13.356Z,3.00
2018-05-31T12:06:13.409Z,3.10
2018-05-31T12:07:13.459Z,3.00
2018-05-31T12:08:13.578Z,3.00
2018-05-31T12:09:13.568Z,3.10
2018-05-31T12:10:13.619Z,2.50
2018-05-31T12:11:13.673Z,3.10
2018-05-31T12:12:13.741Z,3.00
2018-05-31T12:13:13.781Z,2.60
2018-05-31T12:14:13.833Z,2.60
2018-05-31T12:15:13.890Z,2.10
2018-05-31T12:16:13.944Z,2.60
2018-05-31T12:17:13.998Z,2.60
2018-05-31T12:18:14.055Z,2.20
2018-05-31T12:19:14.109Z,2.00
2018-05-31T12:20:14.164Z,2.50
2018-05-31T12:21:14.266Z,2.50
2018-05-31T12:22:14.275Z,2.90
2018-05-31T12:23:14.330Z,2.50
2018-05-31T12:24:14.387Z,2.20
2018-05-31T12:25:14.446Z,2.00
2018-05-31T12:26:14.498Z,2.10
2018-05-31T12:27:14.555Z,2.60
2018-05-31T12:28:14.613Z,2.10
2018-05-31T12:29:14.668Z,2.10
2018-05-31T12:30:14.728Z,1.70
2018-05-31T12:31:14.783Z,2.00
2018-05-31T12:32:14.848Z,1.80
2018-05-31T12:33:14.891Z,1.90
2018-05-31T12:34:14.946Z,1.90
2018-05-31T12:35:15.001Z,1.90
2018-05-31T12:36:15.055Z,2.10
2018-05-31T12:37:15.111Z,2.20
2018-05-31T12:38:15.164Z,2.30
2018-05-31T12:39:15.220Z,2.30
2018-05-31T12:40:15.274Z,2.40
2018-05-31T12:41:15.330Z,2.00
2018-05-31T12:42:15.383Z,2.40
2018-05-31T12:43:15.437Z,2.10
2018-05-31T12:44:15.493Z,2.30
2018-05-31T12:45:15.551Z,2.00
2018-05-31T12:46:15.604Z,1.80
2018-05-31T12:47:15.659Z,2.40
2018-05-31T12:48:15.715Z,1.70
2018-05-31T12:49:15.769Z,1.80
2018-05-31T12:50:15.827Z,1.80
2018-05-31T12:51:15.881Z,1.90
2018-05-31T12:52:15.941Z,1.90
2018-05-31T12:53:15.994Z,2.20
2018-05-31T12:54:16.049Z,1.80
2018-05-31T12:55:16.106Z,2.20
2018-05-31T12:56:16.163Z,1.80
2018-05-31T12:57:16.218Z,2.20
2018-05-31T12:58:16.278Z,1.90
2018-05-31T12:59:16.334Z,1.50
2018-05-31T13:00:16.387Z,1.80
2018-05-31T13:01:16.446Z,1.60
2018-05-31T13:02:16.502Z,2.20
2018-05-31T13:03:16.561Z,2.10
2018-05-31T13:04:16.617Z,2.20
2018-05-31T13:05:16.673Z,1.90
2018-05-31T13:06:16.728Z,1.90
2018-05-31T13:07:16.786Z,1.80
2018-05-31T13:08:16.843Z,2.10
2018-05-31T13:09:16.899Z,2.00
2018-05-31T13:10:16.952Z,2.60
2018-05-31T13:11:17.010Z,2.00
2018-05-31T13:12:17.117Z,2.10
2018-05-31T13:13:17.122Z,1.70
2018-05-31T13:14:17.179Z,2.20
2018-05-31T13:15:17.233Z,2.20
2018-05-31T13:16:17.288Z,2.40
2018-05-31T13:17:17.343Z,2.10